Terminal Aerodrome Forecast
Issued by NWS

Home | Current Version | Previous Version | Text Only | Print | Product List | Glossary On
Versions: 1 2 3 4 5 6 7 8 9 10 11 12 13 14 15 16 17 18 19 20 21 22 23 24 25 26
000
FTUS44 KJAN 071735
TAFHKS
TAF
KHKS 071735Z 0718/0818 19010KT P6SM VCSH FEW035 FEW050
     FM072300 17006KT P6SM FEW050 SCT250
     FM080900 16006KT P6SM SCT006 BKN015
      TEMPO 0811/0815 OVC006
     FM081500 20010KT P6SM SCT015 SCT025=

USA.gov is the U.S. government's official web portal to all federal, state and local government web resources and services.